Ansonville, North Carolina
Current Conditions -  °F | °C
As of 5:55 PM on Thursday 27 Nov 2014 (Local Time) from KAFP Reporting Station
Clear Clear  
Wind Chill: 40°   Ceiling: Unl
Heat Index: 44°   Visibility: 10mi
Dew Point: 31°   Wind: 8mph
Humidity: 59%   Direction: 310°NW
Pressure: 30.18"   Gusts: NA
Location:  35.1°N, 80.11°W
Report Text: KAFP 272255Z AUTO 31007KT 10SM CLR 07/M01 A3018 RMK AO2 T00681008
Loading
Personal Weather Stations






























Interactive Weather Map New forecast layout! Learn more

10-Day Weather Forecast

Advertisements
Track Severe Weather on mobile